sensor_id;sensor_type;location;lat;lon;timestamp;P1;durP1;ratioP1;P2;durP2;ratioP2
49860;SDS011;35761;48.826;9.238;2023-09-18T00:01:49;6.43;;;2.92;;
49860;SDS011;35761;48.826;9.238;2023-09-18T00:04:15;4.22;;;2.50;;
49860;SDS011;35761;48.826;9.238;2023-09-18T00:06:40;6.95;;;3.03;;
49860;SDS011;35761;48.826;9.238;2023-09-18T00:09:06;6.25;;;2.90;;
49860;SDS011;35761;48.826;9.238;2023-09-18T00:11:36;6.82;;;2.90;;
49860;SDS011;35761;48.826;9.238;2023-09-18T00:14:03;10.10;;;3.03;;
49860;SDS011;35761;48.826;9.238;2023-09-18T00:16:29;5.18;;;3.20;;
49860;SDS011;35761;48.826;9.238;2023-09-18T00:18:54;5.22;;;2.70;;
49860;SDS011;35761;48.826;9.238;2023-09-18T00:21:20;8.43;;;3.47;;
49860;SDS011;35761;48.826;9.238;2023-09-18T00:23:45;4.95;;;3.30;;
49860;SDS011;35761;48.826;9.238;2023-09-18T00:26:11;8.68;;;6.55;;
49860;SDS011;35761;48.826;9.238;2023-09-18T00:28:40;7.55;;;4.15;;
49860;SDS011;35761;48.826;9.238;2023-09-18T00:31:06;10.93;;;5.60;;
49860;SDS011;35761;48.826;9.238;2023-09-18T00:33:31;9.20;;;5.85;;
49860;SDS011;35761;48.826;9.238;2023-09-18T00:35:56;9.20;;;5.50;;
49860;SDS011;35761;48.826;9.238;2023-09-18T00:38:22;8.25;;;4.22;;
49860;SDS011;35761;48.826;9.238;2023-09-18T00:40:47;6.05;;;3.90;;
49860;SDS011;35761;48.826;9.238;2023-09-18T00:43:13;5.90;;;3.58;;
49860;SDS011;35761;48.826;9.238;2023-09-18T00:45:40;6.90;;;3.63;;
49860;SDS011;35761;48.826;9.238;2023-09-18T00:48:07;12.02;;;3.28;;
49860;SDS011;35761;48.826;9.238;2023-09-18T00:50:33;5.03;;;3.20;;
49860;SDS011;35761;48.826;9.238;2023-09-18T00:52:59;8.30;;;3.25;;
49860;SDS011;35761;48.826;9.238;2023-09-18T00:55:26;8.05;;;3.38;;
49860;SDS011;35761;48.826;9.238;2023-09-18T00:57:52;7.57;;;4.00;;
49860;SDS011;35761;48.826;9.238;2023-09-18T01:00:20;5.88;;;3.25;;
49860;SDS011;35761;48.826;9.238;2023-09-18T01:02:46;7.15;;;3.28;;
49860;SDS011;35761;48.826;9.238;2023-09-18T01:05:12;5.45;;;3.20;;
49860;SDS011;35761;48.826;9.238;2023-09-18T01:07:38;4.85;;;2.80;;
49860;SDS011;35761;48.826;9.238;2023-09-18T01:10:03;7.28;;;3.03;;
49860;SDS011;35761;48.826;9.238;2023-09-18T01:15:22;5.15;;;2.50;;
49860;SDS011;35761;48.826;9.238;2023-09-18T01:17:50;6.65;;;3.38;;
49860;SDS011;35761;48.826;9.238;2023-09-18T01:20:16;6.70;;;2.70;;
49860;SDS011;35761;48.826;9.238;2023-09-18T01:22:41;5.82;;;2.90;;
49860;SDS011;35761;48.826;9.238;2023-09-18T01:25:08;4.50;;;2.80;;
49860;SDS011;35761;48.826;9.238;2023-09-18T01:27:34;5.60;;;3.00;;
49860;SDS011;35761;48.826;9.238;2023-09-18T01:29:59;5.40;;;2.80;;
49860;SDS011;35761;48.826;9.238;2023-09-18T01:32:26;6.93;;;3.08;;
49860;SDS011;35761;48.826;9.238;2023-09-18T01:34:54;5.15;;;3.10;;
49860;SDS011;35761;48.826;9.238;2023-09-18T01:37:21;5.82;;;3.10;;
49860;SDS011;35761;48.826;9.238;2023-09-18T01:39:54;8.02;;;2.85;;
49860;SDS011;35761;48.826;9.238;2023-09-18T01:42:23;5.70;;;2.80;;
49860;SDS011;35761;48.826;9.238;2023-09-18T01:44:49;7.60;;;3.17;;
49860;SDS011;35761;48.826;9.238;2023-09-18T01:47:18;5.78;;;2.70;;
49860;SDS011;35761;48.826;9.238;2023-09-18T01:49:44;5.28;;;2.70;;
49860;SDS011;35761;48.826;9.238;2023-09-18T01:52:11;8.27;;;3.17;;
49860;SDS011;35761;48.826;9.238;2023-09-18T01:54:37;5.78;;;3.15;;
49860;SDS011;35761;48.826;9.238;2023-09-18T01:57:02;9.70;;;4.20;;
49860;SDS011;35761;48.826;9.238;2023-09-18T01:59:28;7.18;;;3.45;;
49860;SDS011;35761;48.826;9.238;2023-09-18T02:01:54;10.50;;;3.95;;
49860;SDS011;35761;48.826;9.238;2023-09-18T02:04:20;9.02;;;3.40;;
49860;SDS011;35761;48.826;9.238;2023-09-18T02:06:47;8.38;;;3.35;;
49860;SDS011;35761;48.826;9.238;2023-09-18T02:09:15;8.85;;;2.95;;
49860;SDS011;35761;48.826;9.238;2023-09-18T02:11:42;6.88;;;2.80;;
49860;SDS011;35761;48.826;9.238;2023-09-18T02:14:08;8.52;;;3.05;;
49860;SDS011;35761;48.826;9.238;2023-09-18T02:16:38;7.18;;;3.03;;
49860;SDS011;35761;48.826;9.238;2023-09-18T02:19:08;9.23;;;3.10;;
49860;SDS011;35761;48.826;9.238;2023-09-18T02:21:36;7.13;;;2.72;;
49860;SDS011;35761;48.826;9.238;2023-09-18T02:24:01;9.90;;;3.00;;
49860;SDS011;35761;48.826;9.238;2023-09-18T02:26:29;13.30;;;2.78;;
49860;SDS011;35761;48.826;9.238;2023-09-18T02:28:55;7.20;;;2.67;;
49860;SDS011;35761;48.826;9.238;2023-09-18T02:31:23;7.13;;;3.33;;
49860;SDS011;35761;48.826;9.238;2023-09-18T02:33:48;12.82;;;2.65;;
49860;SDS011;35761;48.826;9.238;2023-09-18T02:36:14;16.98;;;3.08;;
49860;SDS011;35761;48.826;9.238;2023-09-18T02:38:40;13.63;;;2.92;;
49860;SDS011;35761;48.826;9.238;2023-09-18T02:41:05;12.23;;;2.60;;
49860;SDS011;35761;48.826;9.238;2023-09-18T02:43:31;9.23;;;2.58;;
49860;SDS011;35761;48.826;9.238;2023-09-18T02:45:56;11.02;;;3.10;;
49860;SDS011;35761;48.826;9.238;2023-09-18T02:48:22;17.35;;;3.22;;
49860;SDS011;35761;48.826;9.238;2023-09-18T02:50:47;16.90;;;3.38;;
49860;SDS011;35761;48.826;9.238;2023-09-18T02:53:23;8.07;;;2.92;;
49860;SDS011;35761;48.826;9.238;2023-09-18T02:55:53;12.73;;;3.13;;
49860;SDS011;35761;48.826;9.238;2023-09-18T02:58:20;16.27;;;3.15;;
49860;SDS011;35761;48.826;9.238;2023-09-18T03:00:46;15.15;;;3.75;;
49860;SDS011;35761;48.826;9.238;2023-09-18T03:03:13;14.77;;;3.80;;
49860;SDS011;35761;48.826;9.238;2023-09-18T03:05:40;12.88;;;2.65;;
49860;SDS011;35761;48.826;9.238;2023-09-18T03:08:06;7.88;;;3.40;;
49860;SDS011;35761;48.826;9.238;2023-09-18T03:10:35;11.43;;;3.30;;
49860;SDS011;35761;48.826;9.238;2023-09-18T03:13:02;21.73;;;3.47;;
49860;SDS011;35761;48.826;9.238;2023-09-18T03:15:28;14.52;;;3.30;;
49860;SDS011;35761;48.826;9.238;2023-09-18T03:17:56;12.27;;;2.97;;
49860;SDS011;35761;48.826;9.238;2023-09-18T03:20:22;17.42;;;3.38;;
49860;SDS011;35761;48.826;9.238;2023-09-18T03:22:50;10.77;;;2.90;;
49860;SDS011;35761;48.826;9.238;2023-09-18T03:25:16;11.43;;;3.17;;
49860;SDS011;35761;48.826;9.238;2023-09-18T03:27:41;15.13;;;3.25;;
49860;SDS011;35761;48.826;9.238;2023-09-18T03:30:07;14.75;;;3.10;;
49860;SDS011;35761;48.826;9.238;2023-09-18T03:32:34;16.80;;;3.20;;
49860;SDS011;35761;48.826;9.238;2023-09-18T03:35:01;13.27;;;2.97;;
49860;SDS011;35761;48.826;9.238;2023-09-18T03:37:27;15.00;;;3.50;;
49860;SDS011;35761;48.826;9.238;2023-09-18T03:39:53;15.75;;;3.40;;
49860;SDS011;35761;48.826;9.238;2023-09-18T03:42:19;8.95;;;3.42;;
49860;SDS011;35761;48.826;9.238;2023-09-18T03:44:45;18.70;;;3.83;;
49860;SDS011;35761;48.826;9.238;2023-09-18T03:47:10;12.88;;;3.03;;
49860;SDS011;35761;48.826;9.238;2023-09-18T03:49:36;13.32;;;3.20;;
49860;SDS011;35761;48.826;9.238;2023-09-18T03:52:02;19.40;;;8.70;;
49860;SDS011;35761;48.826;9.238;2023-09-18T03:54:27;14.93;;;5.85;;
49860;SDS011;35761;48.826;9.238;2023-09-18T03:56:53;19.60;;;4.43;;
49860;SDS011;35761;48.826;9.238;2023-09-18T03:59:18;12.35;;;3.10;;
49860;SDS011;35761;48.826;9.238;2023-09-18T04:01:44;14.50;;;4.25;;
49860;SDS011;35761;48.826;9.238;2023-09-18T04:04:10;10.95;;;3.38;;
49860;SDS011;35761;48.826;9.238;2023-09-18T04:06:43;15.10;;;3.60;;
49860;SDS011;35761;48.826;9.238;2023-09-18T04:09:10;10.45;;;3.17;;
49860;SDS011;35761;48.826;9.238;2023-09-18T04:11:35;16.85;;;3.80;;
49860;SDS011;35761;48.826;9.238;2023-09-18T04:14:01;14.48;;;4.35;;
49860;SDS011;35761;48.826;9.238;2023-09-18T04:16:28;15.70;;;4.63;;
49860;SDS011;35761;48.826;9.238;2023-09-18T04:18:56;17.15;;;4.05;;
49860;SDS011;35761;48.826;9.238;2023-09-18T04:21:22;15.40;;;3.80;;
49860;SDS011;35761;48.826;9.238;2023-09-18T04:23:49;15.65;;;4.50;;
49860;SDS011;35761;48.826;9.238;2023-09-18T04:26:20;15.32;;;4.15;;
49860;SDS011;35761;48.826;9.238;2023-09-18T04:28:46;25.52;;;4.25;;
49860;SDS011;35761;48.826;9.238;2023-09-18T04:31:13;12.57;;;4.05;;
49860;SDS011;35761;48.826;9.238;2023-09-18T04:33:38;16.90;;;4.78;;
49860;SDS011;35761;48.826;9.238;2023-09-18T04:36:04;14.50;;;4.00;;
49860;SDS011;35761;48.826;9.238;2023-09-18T04:38:30;12.43;;;4.13;;
49860;SDS011;35761;48.826;9.238;2023-09-18T04:40:59;15.43;;;4.50;;
49860;SDS011;35761;48.826;9.238;2023-09-18T04:43:25;15.07;;;6.78;;
49860;SDS011;35761;48.826;9.238;2023-09-18T04:45:51;12.07;;;4.68;;
49860;SDS011;35761;48.826;9.238;2023-09-18T04:48:16;13.70;;;4.72;;
49860;SDS011;35761;48.826;9.238;2023-09-18T04:50:42;16.50;;;3.33;;
49860;SDS011;35761;48.826;9.238;2023-09-18T04:53:08;9.68;;;3.47;;
49860;SDS011;35761;48.826;9.238;2023-09-18T04:55:34;12.60;;;3.72;;
49860;SDS011;35761;48.826;9.238;2023-09-18T04:57:59;16.33;;;3.50;;
49860;SDS011;35761;48.826;9.238;2023-09-18T05:00:25;13.13;;;3.92;;
49860;SDS011;35761;48.826;9.238;2023-09-18T05:02:52;13.85;;;3.30;;
49860;SDS011;35761;48.826;9.238;2023-09-18T05:05:18;13.93;;;3.75;;
49860;SDS011;35761;48.826;9.238;2023-09-18T05:07:44;12.43;;;3.05;;
49860;SDS011;35761;48.826;9.238;2023-09-18T05:10:09;12.60;;;3.55;;
49860;SDS011;35761;48.826;9.238;2023-09-18T05:12:37;12.75;;;3.63;;
49860;SDS011;35761;48.826;9.238;2023-09-18T05:15:03;14.35;;;5.25;;
49860;SDS011;35761;48.826;9.238;2023-09-18T05:17:42;12.73;;;4.45;;
49860;SDS011;35761;48.826;9.238;2023-09-18T05:20:10;9.80;;;3.13;;
49860;SDS011;35761;48.826;9.238;2023-09-18T05:22:41;13.95;;;3.50;;
49860;SDS011;35761;48.826;9.238;2023-09-18T05:25:08;17.85;;;5.45;;
49860;SDS011;35761;48.826;9.238;2023-09-18T05:27:37;13.65;;;3.25;;
49860;SDS011;35761;48.826;9.238;2023-09-18T05:30:10;11.07;;;3.10;;
49860;SDS011;35761;48.826;9.238;2023-09-18T05:32:36;14.18;;;3.55;;
49860;SDS011;35761;48.826;9.238;2023-09-18T05:35:02;17.10;;;4.20;;
49860;SDS011;35761;48.826;9.238;2023-09-18T05:37:31;15.50;;;4.07;;
49860;SDS011;35761;48.826;9.238;2023-09-18T05:39:57;15.02;;;3.45;;
49860;SDS011;35761;48.826;9.238;2023-09-18T05:42:23;14.18;;;3.70;;
49860;SDS011;35761;48.826;9.238;2023-09-18T05:44:48;13.60;;;3.65;;
49860;SDS011;35761;48.826;9.238;2023-09-18T05:47:14;15.52;;;3.40;;
49860;SDS011;35761;48.826;9.238;2023-09-18T05:49:39;9.02;;;2.92;;
49860;SDS011;35761;48.826;9.238;2023-09-18T05:52:04;15.05;;;2.92;;
49860;SDS011;35761;48.826;9.238;2023-09-18T05:54:30;11.85;;;3.03;;
49860;SDS011;35761;48.826;9.238;2023-09-18T05:56:55;21.00;;;3.45;;
49860;SDS011;35761;48.826;9.238;2023-09-18T05:59:21;10.45;;;3.00;;
49860;SDS011;35761;48.826;9.238;2023-09-18T06:01:46;12.05;;;3.42;;
49860;SDS011;35761;48.826;9.238;2023-09-18T06:04:14;9.45;;;3.30;;
49860;SDS011;35761;48.826;9.238;2023-09-18T06:06:39;16.77;;;3.45;;
49860;SDS011;35761;48.826;9.238;2023-09-18T06:09:05;14.27;;;3.58;;
49860;SDS011;35761;48.826;9.238;2023-09-18T06:11:31;14.25;;;3.13;;
49860;SDS011;35761;48.826;9.238;2023-09-18T06:13:57;8.45;;;2.70;;
49860;SDS011;35761;48.826;9.238;2023-09-18T06:16:22;13.18;;;3.15;;
49860;SDS011;35761;48.826;9.238;2023-09-18T06:18:47;15.63;;;3.47;;
49860;SDS011;35761;48.826;9.238;2023-09-18T06:21:13;15.80;;;2.88;;
49860;SDS011;35761;48.826;9.238;2023-09-18T06:23:39;13.05;;;3.25;;
49860;SDS011;35761;48.826;9.238;2023-09-18T06:26:04;7.88;;;3.08;;
49860;SDS011;35761;48.826;9.238;2023-09-18T06:28:30;9.25;;;2.72;;
49860;SDS011;35761;48.826;9.238;2023-09-18T06:30:55;9.93;;;2.97;;
49860;SDS011;35761;48.826;9.238;2023-09-18T06:33:21;14.77;;;3.17;;
49860;SDS011;35761;48.826;9.238;2023-09-18T06:35:46;13.38;;;2.78;;
49860;SDS011;35761;48.826;9.238;2023-09-18T06:38:13;12.50;;;3.10;;
49860;SDS011;35761;48.826;9.238;2023-09-18T06:40:40;15.50;;;3.40;;
49860;SDS011;35761;48.826;9.238;2023-09-18T06:43:06;8.20;;;2.53;;
49860;SDS011;35761;48.826;9.238;2023-09-18T06:45:31;13.82;;;3.10;;
49860;SDS011;35761;48.826;9.238;2023-09-18T06:47:58;10.48;;;2.65;;
49860;SDS011;35761;48.826;9.238;2023-09-18T06:50:25;10.00;;;3.15;;
49860;SDS011;35761;48.826;9.238;2023-09-18T06:52:51;13.80;;;3.03;;
49860;SDS011;35761;48.826;9.238;2023-09-18T06:55:17;13.55;;;2.70;;
49860;SDS011;35761;48.826;9.238;2023-09-18T06:57:42;11.02;;;2.83;;
49860;SDS011;35761;48.826;9.238;2023-09-18T07:00:08;8.40;;;3.20;;
49860;SDS011;35761;48.826;9.238;2023-09-18T07:02:34;11.60;;;2.67;;
49860;SDS011;35761;48.826;9.238;2023-09-18T07:04:59;16.35;;;3.13;;
49860;SDS011;35761;48.826;9.238;2023-09-18T07:07:25;15.05;;;3.67;;
49860;SDS011;35761;48.826;9.238;2023-09-18T07:09:51;8.73;;;2.50;;
49860;SDS011;35761;48.826;9.238;2023-09-18T07:12:17;12.88;;;2.97;;
49860;SDS011;35761;48.826;9.238;2023-09-18T07:14:45;8.65;;;2.53;;
49860;SDS011;35761;48.826;9.238;2023-09-18T07:17:13;11.93;;;2.88;;
49860;SDS011;35761;48.826;9.238;2023-09-18T07:19:39;9.85;;;2.97;;
49860;SDS011;35761;48.826;9.238;2023-09-18T07:22:04;13.10;;;3.42;;
49860;SDS011;35761;48.826;9.238;2023-09-18T07:24:30;16.50;;;3.85;;
49860;SDS011;35761;48.826;9.238;2023-09-18T07:26:55;10.38;;;2.80;;
49860;SDS011;35761;48.826;9.238;2023-09-18T07:29:23;11.80;;;3.08;;
49860;SDS011;35761;48.826;9.238;2023-09-18T07:31:50;10.40;;;2.70;;
49860;SDS011;35761;48.826;9.238;2023-09-18T07:34:16;14.60;;;2.55;;
49860;SDS011;35761;48.826;9.238;2023-09-18T07:36:42;11.95;;;2.80;;
49860;SDS011;35761;48.826;9.238;2023-09-18T07:39:09;9.30;;;2.30;;
49860;SDS011;35761;48.826;9.238;2023-09-18T07:41:37;8.77;;;2.10;;
49860;SDS011;35761;48.826;9.238;2023-09-18T07:44:02;8.50;;;2.20;;
49860;SDS011;35761;48.826;9.238;2023-09-18T07:46:28;9.18;;;2.33;;
49860;SDS011;35761;48.826;9.238;2023-09-18T07:48:54;13.52;;;3.53;;
49860;SDS011;35761;48.826;9.238;2023-09-18T07:51:20;8.68;;;2.00;;
49860;SDS011;35761;48.826;9.238;2023-09-18T07:53:45;10.45;;;2.70;;
49860;SDS011;35761;48.826;9.238;2023-09-18T07:56:11;5.78;;;2.10;;
49860;SDS011;35761;48.826;9.238;2023-09-18T07:58:37;9.45;;;2.10;;
49860;SDS011;35761;48.826;9.238;2023-09-18T08:01:04;8.15;;;2.35;;
49860;SDS011;35761;48.826;9.238;2023-09-18T08:03:30;5.20;;;1.42;;
49860;SDS011;35761;48.826;9.238;2023-09-18T08:05:56;5.00;;;1.50;;
49860;SDS011;35761;48.826;9.238;2023-09-18T08:08:22;9.35;;;2.10;;
49860;SDS011;35761;48.826;9.238;2023-09-18T08:10:49;5.57;;;2.05;;
49860;SDS011;35761;48.826;9.238;2023-09-18T08:13:15;4.40;;;1.85;;
49860;SDS011;35761;48.826;9.238;2023-09-18T08:15:41;8.93;;;1.83;;
49860;SDS011;35761;48.826;9.238;2023-09-18T08:18:07;3.75;;;1.60;;
49860;SDS011;35761;48.826;9.238;2023-09-18T08:20:32;6.85;;;1.60;;
49860;SDS011;35761;48.826;9.238;2023-09-18T08:22:58;10.02;;;1.77;;
49860;SDS011;35761;48.826;9.238;2023-09-18T08:25:31;3.58;;;1.55;;
49860;SDS011;35761;48.826;9.238;2023-09-18T08:27:57;6.00;;;1.60;;
49860;SDS011;35761;48.826;9.238;2023-09-18T08:30:23;5.05;;;2.03;;
49860;SDS011;35761;48.826;9.238;2023-09-18T08:32:48;3.58;;;1.40;;
49860;SDS011;35761;48.826;9.238;2023-09-18T08:35:14;9.80;;;2.05;;
49860;SDS011;35761;48.826;9.238;2023-09-18T08:37:42;6.07;;;1.60;;
49860;SDS011;35761;48.826;9.238;2023-09-18T08:40:11;6.50;;;1.35;;
49860;SDS011;35761;48.826;9.238;2023-09-18T08:42:39;6.28;;;1.40;;
49860;SDS011;35761;48.826;9.238;2023-09-18T08:45:09;3.78;;;1.70;;
49860;SDS011;35761;48.826;9.238;2023-09-18T08:47:37;7.43;;;1.50;;
49860;SDS011;35761;48.826;9.238;2023-09-18T08:50:04;6.60;;;1.55;;
49860;SDS011;35761;48.826;9.238;2023-09-18T08:52:34;5.05;;;1.70;;
49860;SDS011;35761;48.826;9.238;2023-09-18T08:55:00;8.80;;;1.45;;
49860;SDS011;35761;48.826;9.238;2023-09-18T08:57:26;5.13;;;1.52;;
49860;SDS011;35761;48.826;9.238;2023-09-18T08:59:52;2.47;;;1.15;;
49860;SDS011;35761;48.826;9.238;2023-09-18T09:02:19;8.30;;;1.73;;
49860;SDS011;35761;48.826;9.238;2023-09-18T09:04:45;4.75;;;1.10;;
49860;SDS011;35761;48.826;9.238;2023-09-18T09:07:10;6.65;;;1.60;;
49860;SDS011;35761;48.826;9.238;2023-09-18T09:09:35;7.75;;;1.20;;
49860;SDS011;35761;48.826;9.238;2023-09-18T09:12:01;5.72;;;1.60;;
49860;SDS011;35761;48.826;9.238;2023-09-18T09:14:27;4.55;;;1.73;;
49860;SDS011;35761;48.826;9.238;2023-09-18T09:16:55;3.92;;;1.60;;
49860;SDS011;35761;48.826;9.238;2023-09-18T09:19:32;8.02;;;1.75;;
49860;SDS011;35761;48.826;9.238;2023-09-18T09:22:02;5.15;;;1.55;;
49860;SDS011;35761;48.826;9.238;2023-09-18T09:27:09;2.92;;;1.40;;
49860;SDS011;35761;48.826;9.238;2023-09-18T09:29:36;4.47;;;1.73;;
49860;SDS011;35761;48.826;9.238;2023-09-18T09:32:14;5.03;;;1.48;;
49860;SDS011;35761;48.826;9.238;2023-09-18T09:34:43;4.60;;;1.25;;
49860;SDS011;35761;48.826;9.238;2023-09-18T09:37:11;6.68;;;1.33;;
49860;SDS011;35761;48.826;9.238;2023-09-18T09:39:48;12.85;;;1.60;;
49860;SDS011;35761;48.826;9.238;2023-09-18T09:42:15;4.32;;;1.67;;
49860;SDS011;35761;48.826;9.238;2023-09-18T09:45:01;4.95;;;1.75;;
49860;SDS011;35761;48.826;9.238;2023-09-18T09:47:37;4.40;;;1.30;;
49860;SDS011;35761;48.826;9.238;2023-09-18T09:50:13;4.35;;;1.42;;
49860;SDS011;35761;48.826;9.238;2023-09-18T09:52:48;3.33;;;1.30;;
49860;SDS011;35761;48.826;9.238;2023-09-18T09:55:22;6.77;;;1.63;;
49860;SDS011;35761;48.826;9.238;2023-09-18T09:58:00;6.65;;;1.63;;
49860;SDS011;35761;48.826;9.238;2023-09-18T10:03:13;6.72;;;1.42;;
49860;SDS011;35761;48.826;9.238;2023-09-18T10:05:44;5.68;;;1.38;;
49860;SDS011;35761;48.826;9.238;2023-09-18T10:08:24;4.93;;;1.63;;
49860;SDS011;35761;48.826;9.238;2023-09-18T10:10:52;3.20;;;1.50;;
49860;SDS011;35761;48.826;9.238;2023-09-18T10:13:32;3.85;;;1.40;;
49860;SDS011;35761;48.826;9.238;2023-09-18T10:16:00;8.52;;;1.80;;
49860;SDS011;35761;48.826;9.238;2023-09-18T10:18:28;6.05;;;1.58;;
49860;SDS011;35761;48.826;9.238;2023-09-18T10:21:06;7.45;;;2.15;;
49860;SDS011;35761;48.826;9.238;2023-09-18T10:26:26;6.22;;;1.73;;
49860;SDS011;35761;48.826;9.238;2023-09-18T10:28:56;6.47;;;1.80;;
49860;SDS011;35761;48.826;9.238;2023-09-18T10:31:28;5.50;;;1.77;;
49860;SDS011;35761;48.826;9.238;2023-09-18T10:33:55;10.93;;;2.05;;
49860;SDS011;35761;48.826;9.238;2023-09-18T10:36:22;4.60;;;1.58;;
49860;SDS011;35761;48.826;9.238;2023-09-18T10:38:49;4.95;;;1.73;;
49860;SDS011;35761;48.826;9.238;2023-09-18T10:41:17;6.43;;;1.75;;
49860;SDS011;35761;48.826;9.238;2023-09-18T10:43:45;4.97;;;2.08;;
49860;SDS011;35761;48.826;9.238;2023-09-18T10:46:12;6.78;;;1.90;;
49860;SDS011;35761;48.826;9.238;2023-09-18T10:48:40;7.90;;;1.90;;
49860;SDS011;35761;48.826;9.238;2023-09-18T10:51:07;10.93;;;2.28;;
49860;SDS011;35761;48.826;9.238;2023-09-18T10:53:33;9.23;;;2.70;;
49860;SDS011;35761;48.826;9.238;2023-09-18T10:56:00;5.80;;;1.85;;
49860;SDS011;35761;48.826;9.238;2023-09-18T10:58:32;16.55;;;2.38;;
49860;SDS011;35761;48.826;9.238;2023-09-18T11:01:01;5.38;;;1.90;;
49860;SDS011;35761;48.826;9.238;2023-09-18T11:03:27;5.18;;;1.65;;
49860;SDS011;35761;48.826;9.238;2023-09-18T11:06:07;16.70;;;2.20;;
49860;SDS011;35761;48.826;9.238;2023-09-18T11:08:45;3.67;;;1.70;;
49860;SDS011;35761;48.826;9.238;2023-09-18T11:11:12;4.72;;;1.98;;
49860;SDS011;35761;48.826;9.238;2023-09-18T11:13:40;5.28;;;1.73;;
49860;SDS011;35761;48.826;9.238;2023-09-18T11:18:38;5.82;;;1.50;;
49860;SDS011;35761;48.826;9.238;2023-09-18T11:21:11;6.32;;;1.70;;
49860;SDS011;35761;48.826;9.238;2023-09-18T11:23:38;5.07;;;1.60;;
49860;SDS011;35761;48.826;9.238;2023-09-18T11:26:10;1.92;;;1.20;;
49860;SDS011;35761;48.826;9.238;2023-09-18T11:28:36;3.53;;;1.55;;
49860;SDS011;35761;48.826;9.238;2023-09-18T11:31:02;6.57;;;1.70;;
49860;SDS011;35761;48.826;9.238;2023-09-18T11:33:39;5.90;;;1.88;;
49860;SDS011;35761;48.826;9.238;2023-09-18T11:36:28;8.32;;;2.45;;
49860;SDS011;35761;48.826;9.238;2023-09-18T11:41:22;7.97;;;1.98;;
49860;SDS011;35761;48.826;9.238;2023-09-18T11:43:52;8.73;;;2.00;;
49860;SDS011;35761;48.826;9.238;2023-09-18T11:46:20;5.18;;;1.60;;
49860;SDS011;35761;48.826;9.238;2023-09-18T11:48:47;5.10;;;2.00;;
49860;SDS011;35761;48.826;9.238;2023-09-18T11:51:20;2.58;;;1.35;;
49860;SDS011;35761;48.826;9.238;2023-09-18T11:53:46;4.88;;;1.45;;
49860;SDS011;35761;48.826;9.238;2023-09-18T11:56:13;5.03;;;1.70;;
49860;SDS011;35761;48.826;9.238;2023-09-18T11:58:49;9.45;;;1.85;;
49860;SDS011;35761;48.826;9.238;2023-09-18T12:01:17;4.38;;;1.70;;
49860;SDS011;35761;48.826;9.238;2023-09-18T12:03:43;4.50;;;1.60;;
49860;SDS011;35761;48.826;9.238;2023-09-18T12:06:10;3.13;;;1.70;;
49860;SDS011;35761;48.826;9.238;2023-09-18T12:08:40;4.03;;;1.50;;
49860;SDS011;35761;48.826;9.238;2023-09-18T12:11:06;5.03;;;1.58;;
49860;SDS011;35761;48.826;9.238;2023-09-18T12:13:32;4.80;;;1.88;;
49860;SDS011;35761;48.826;9.238;2023-09-18T12:18:29;4.90;;;1.55;;
49860;SDS011;35761;48.826;9.238;2023-09-18T12:20:55;3.67;;;1.38;;
49860;SDS011;35761;48.826;9.238;2023-09-18T12:23:21;5.90;;;1.77;;
49860;SDS011;35761;48.826;9.238;2023-09-18T12:25:48;3.65;;;1.70;;
49860;SDS011;35761;48.826;9.238;2023-09-18T12:28:15;3.38;;;1.50;;
49860;SDS011;35761;48.826;9.238;2023-09-18T12:30:42;3.85;;;1.50;;
49860;SDS011;35761;48.826;9.238;2023-09-18T12:33:08;5.70;;;1.70;;
49860;SDS011;35761;48.826;9.238;2023-09-18T12:35:34;5.13;;;1.98;;
49860;SDS011;35761;48.826;9.238;2023-09-18T12:37:59;4.93;;;1.65;;
49860;SDS011;35761;48.826;9.238;2023-09-18T12:40:29;6.85;;;1.67;;
49860;SDS011;35761;48.826;9.238;2023-09-18T12:42:58;5.00;;;2.00;;
49860;SDS011;35761;48.826;9.238;2023-09-18T12:45:25;2.33;;;1.33;;
49860;SDS011;35761;48.826;9.238;2023-09-18T12:47:51;5.57;;;1.65;;
49860;SDS011;35761;48.826;9.238;2023-09-18T12:50:21;4.85;;;1.65;;
49860;SDS011;35761;48.826;9.238;2023-09-18T12:52:49;4.47;;;1.83;;
49860;SDS011;35761;48.826;9.238;2023-09-18T12:55:22;3.83;;;1.70;;
49860;SDS011;35761;48.826;9.238;2023-09-18T12:57:51;5.90;;;2.20;;
49860;SDS011;35761;48.826;9.238;2023-09-18T13:00:18;8.32;;;1.60;;
49860;SDS011;35761;48.826;9.238;2023-09-18T13:02:46;4.28;;;1.67;;
49860;SDS011;35761;48.826;9.238;2023-09-18T13:05:12;5.05;;;1.65;;
49860;SDS011;35761;48.826;9.238;2023-09-18T13:07:43;8.32;;;2.00;;
49860;SDS011;35761;48.826;9.238;2023-09-18T13:10:10;6.57;;;1.80;;
49860;SDS011;35761;48.826;9.238;2023-09-18T13:12:43;6.88;;;1.65;;
49860;SDS011;35761;48.826;9.238;2023-09-18T13:15:11;4.85;;;1.52;;
49860;SDS011;35761;48.826;9.238;2023-09-18T13:17:44;4.13;;;1.40;;
49860;SDS011;35761;48.826;9.238;2023-09-18T13:20:18;6.88;;;1.50;;
49860;SDS011;35761;48.826;9.238;2023-09-18T13:22:49;3.22;;;1.45;;
49860;SDS011;35761;48.826;9.238;2023-09-18T13:25:22;6.25;;;1.70;;
49860;SDS011;35761;48.826;9.238;2023-09-18T13:27:49;5.00;;;1.35;;
49860;SDS011;35761;48.826;9.238;2023-09-18T13:30:16;3.92;;;1.30;;
49860;SDS011;35761;48.826;9.238;2023-09-18T13:32:45;6.07;;;1.77;;
49860;SDS011;35761;48.826;9.238;2023-09-18T13:35:13;3.03;;;1.50;;
49860;SDS011;35761;48.826;9.238;2023-09-18T13:37:40;3.60;;;1.40;;
49860;SDS011;35761;48.826;9.238;2023-09-18T13:40:06;8.23;;;1.70;;
49860;SDS011;35761;48.826;9.238;2023-09-18T13:42:32;4.32;;;1.40;;
49860;SDS011;35761;48.826;9.238;2023-09-18T13:44:58;3.42;;;1.60;;
49860;SDS011;35761;48.826;9.238;2023-09-18T13:47:30;6.75;;;1.58;;
49860;SDS011;35761;48.826;9.238;2023-09-18T13:49:55;5.32;;;1.35;;
49860;SDS011;35761;48.826;9.238;2023-09-18T13:52:31;8.65;;;1.80;;
49860;SDS011;35761;48.826;9.238;2023-09-18T13:54:57;2.60;;;1.15;;
49860;SDS011;35761;48.826;9.238;2023-09-18T13:57:23;5.55;;;1.42;;
49860;SDS011;35761;48.826;9.238;2023-09-18T13:59:49;4.38;;;1.50;;
49860;SDS011;35761;48.826;9.238;2023-09-18T14:02:15;5.53;;;1.60;;
49860;SDS011;35761;48.826;9.238;2023-09-18T14:04:41;2.85;;;1.88;;
49860;SDS011;35761;48.826;9.238;2023-09-18T14:07:07;2.80;;;1.48;;
49860;SDS011;35761;48.826;9.238;2023-09-18T14:09:33;5.55;;;1.80;;
49860;SDS011;35761;48.826;9.238;2023-09-18T14:12:00;3.72;;;1.40;;
49860;SDS011;35761;48.826;9.238;2023-09-18T14:14:25;3.13;;;1.20;;
49860;SDS011;35761;48.826;9.238;2023-09-18T14:16:51;4.05;;;1.48;;
49860;SDS011;35761;48.826;9.238;2023-09-18T14:19:17;5.60;;;1.35;;
49860;SDS011;35761;48.826;9.238;2023-09-18T14:21:42;7.70;;;1.20;;
49860;SDS011;35761;48.826;9.238;2023-09-18T14:24:08;2.88;;;1.45;;
49860;SDS011;35761;48.826;9.238;2023-09-18T14:26:35;2.88;;;1.10;;
49860;SDS011;35761;48.826;9.238;2023-09-18T14:29:08;2.67;;;1.27;;
49860;SDS011;35761;48.826;9.238;2023-09-18T14:31:37;2.85;;;1.38;;
49860;SDS011;35761;48.826;9.238;2023-09-18T14:34:02;3.58;;;1.20;;
49860;SDS011;35761;48.826;9.238;2023-09-18T14:36:29;2.90;;;1.40;;
49860;SDS011;35761;48.826;9.238;2023-09-18T14:38:55;3.42;;;1.42;;
49860;SDS011;35761;48.826;9.238;2023-09-18T14:41:23;7.55;;;1.55;;
49860;SDS011;35761;48.826;9.238;2023-09-18T14:43:50;3.80;;;1.40;;
49860;SDS011;35761;48.826;9.238;2023-09-18T14:46:15;3.28;;;1.23;;
49860;SDS011;35761;48.826;9.238;2023-09-18T14:48:41;3.13;;;1.20;;
49860;SDS011;35761;48.826;9.238;2023-09-18T14:51:06;5.18;;;1.80;;
49860;SDS011;35761;48.826;9.238;2023-09-18T14:53:32;3.90;;;1.27;;
49860;SDS011;35761;48.826;9.238;2023-09-18T14:55:58;2.70;;;1.30;;
49860;SDS011;35761;48.826;9.238;2023-09-18T14:58:23;3.40;;;1.30;;
49860;SDS011;35761;48.826;9.238;2023-09-18T15:00:49;3.05;;;1.35;;
49860;SDS011;35761;48.826;9.238;2023-09-18T15:03:15;3.40;;;1.20;;